Terminal Aerodrome Forecast
Issued by NWS Twin Cities, MN

Home | Current Version | Previous Version | Text Only | Print | Product List | Glossary Off
Versions: 1 2 3 4 5 6 7 8 9 10 11 12 13 14 15 16 17

767
FTUS43 KMPX 141723
TAFEAU
TAF
KEAU 141723Z 1418/1518 24006KT P6SM -SHSN OVC030
     FM142000 25007KT P6SM -SHSN BKN015
     FM150200 28006KT P6SM -SHSN OVC020
     FM151100 29006KT P6SM BKN025
     FM151600 29005KT P6SM BKN020=

USA.gov is the U.S. government's official web portal to all federal, state and local government web resources and services.